sensor_id;sensor_type;location;lat;lon;timestamp;P1;durP1;ratioP1;P2;durP2;ratioP2
12784;SDS011;6456;42.680;23.260;2023-08-08T00:01:36;1.70;;;1.20;;
12784;SDS011;6456;42.680;23.260;2023-08-08T00:04:05;1.27;;;1.20;;
12784;SDS011;6456;42.680;23.260;2023-08-08T00:06:32;1.23;;;1.13;;
12784;SDS011;6456;42.680;23.260;2023-08-08T00:08:59;3.30;;;1.20;;
12784;SDS011;6456;42.680;23.260;2023-08-08T00:11:26;2.27;;;1.30;;
12784;SDS011;6456;42.680;23.260;2023-08-08T00:13:52;1.37;;;1.27;;
12784;SDS011;6456;42.680;23.260;2023-08-08T00:16:19;0.90;;;0.90;;
12784;SDS011;6456;42.680;23.260;2023-08-08T00:18:46;1.00;;;1.00;;
12784;SDS011;6456;42.680;23.260;2023-08-08T00:21:16;1.13;;;1.10;;
12784;SDS011;6456;42.680;23.260;2023-08-08T00:23:43;1.83;;;1.10;;
12784;SDS011;6456;42.680;23.260;2023-08-08T00:26:11;1.80;;;1.20;;
12784;SDS011;6456;42.680;23.260;2023-08-08T00:28:38;1.00;;;1.00;;
12784;SDS011;6456;42.680;23.260;2023-08-08T00:31:05;1.57;;;1.13;;
12784;SDS011;6456;42.680;23.260;2023-08-08T00:33:32;1.13;;;1.13;;
12784;SDS011;6456;42.680;23.260;2023-08-08T00:35:58;1.00;;;1.00;;
12784;SDS011;6456;42.680;23.260;2023-08-08T00:38:27;2.40;;;1.00;;
12784;SDS011;6456;42.680;23.260;2023-08-08T00:40:54;1.07;;;1.07;;
12784;SDS011;6456;42.680;23.260;2023-08-08T00:43:20;1.30;;;1.20;;
12784;SDS011;6456;42.680;23.260;2023-08-08T00:45:48;1.00;;;1.00;;
12784;SDS011;6456;42.680;23.260;2023-08-08T00:48:15;1.00;;;1.00;;
12784;SDS011;6456;42.680;23.260;2023-08-08T00:50:43;1.13;;;1.00;;
12784;SDS011;6456;42.680;23.260;2023-08-08T00:53:10;1.10;;;1.00;;
12784;SDS011;6456;42.680;23.260;2023-08-08T00:55:39;1.00;;;1.00;;
12784;SDS011;6456;42.680;23.260;2023-08-08T00:58:06;1.20;;;1.20;;
12784;SDS011;6456;42.680;23.260;2023-08-08T01:00:33;1.50;;;1.20;;
12784;SDS011;6456;42.680;23.260;2023-08-08T01:03:02;1.20;;;1.10;;
12784;SDS011;6456;42.680;23.260;2023-08-08T01:05:31;1.17;;;1.10;;
12784;SDS011;6456;42.680;23.260;2023-08-08T01:08:02;1.20;;;1.10;;
12784;SDS011;6456;42.680;23.260;2023-08-08T01:10:31;1.03;;;1.03;;
12784;SDS011;6456;42.680;23.260;2023-08-08T01:13:04;1.00;;;1.00;;
12784;SDS011;6456;42.680;23.260;2023-08-08T01:15:35;1.20;;;1.10;;
12784;SDS011;6456;42.680;23.260;2023-08-08T01:18:03;1.00;;;1.00;;
12784;SDS011;6456;42.680;23.260;2023-08-08T01:20:31;1.23;;;1.13;;
12784;SDS011;6456;42.680;23.260;2023-08-08T01:23:01;1.23;;;1.13;;
12784;SDS011;6456;42.680;23.260;2023-08-08T01:25:40;1.50;;;1.40;;
12784;SDS011;6456;42.680;23.260;2023-08-08T01:28:08;1.03;;;1.03;;
12784;SDS011;6456;42.680;23.260;2023-08-08T01:30:35;1.23;;;1.20;;
12784;SDS011;6456;42.680;23.260;2023-08-08T01:33:02;1.43;;;1.33;;
12784;SDS011;6456;42.680;23.260;2023-08-08T01:35:35;1.27;;;1.10;;
12784;SDS011;6456;42.680;23.260;2023-08-08T01:38:08;2.10;;;1.30;;
12784;SDS011;6456;42.680;23.260;2023-08-08T01:40:37;2.90;;;1.73;;
12784;SDS011;6456;42.680;23.260;2023-08-08T01:43:07;1.40;;;1.30;;
12784;SDS011;6456;42.680;23.260;2023-08-08T01:45:35;1.10;;;1.10;;
12784;SDS011;6456;42.680;23.260;2023-08-08T01:48:06;2.80;;;1.20;;
12784;SDS011;6456;42.680;23.260;2023-08-08T01:50:34;1.33;;;1.23;;
12784;SDS011;6456;42.680;23.260;2023-08-08T01:53:01;1.20;;;1.20;;
12784;SDS011;6456;42.680;23.260;2023-08-08T01:55:28;1.40;;;1.30;;
12784;SDS011;6456;42.680;23.260;2023-08-08T01:57:55;1.50;;;1.40;;
12784;SDS011;6456;42.680;23.260;2023-08-08T02:00:24;1.70;;;1.60;;
12784;SDS011;6456;42.680;23.260;2023-08-08T02:02:50;1.70;;;1.60;;
12784;SDS011;6456;42.680;23.260;2023-08-08T02:05:17;1.73;;;1.63;;
12784;SDS011;6456;42.680;23.260;2023-08-08T02:07:43;1.40;;;1.40;;
12784;SDS011;6456;42.680;23.260;2023-08-08T02:10:10;1.40;;;1.30;;
12784;SDS011;6456;42.680;23.260;2023-08-08T02:12:37;1.20;;;1.20;;
12784;SDS011;6456;42.680;23.260;2023-08-08T02:15:05;1.43;;;1.33;;
12784;SDS011;6456;42.680;23.260;2023-08-08T02:17:34;1.30;;;1.30;;
12784;SDS011;6456;42.680;23.260;2023-08-08T02:20:00;2.40;;;1.40;;
12784;SDS011;6456;42.680;23.260;2023-08-08T02:22:28;1.33;;;1.33;;
12784;SDS011;6456;42.680;23.260;2023-08-08T02:24:55;1.67;;;1.30;;
12784;SDS011;6456;42.680;23.260;2023-08-08T02:27:22;1.43;;;1.37;;
12784;SDS011;6456;42.680;23.260;2023-08-08T02:29:49;2.07;;;1.60;;
12784;SDS011;6456;42.680;23.260;2023-08-08T02:32:16;1.60;;;1.50;;
12784;SDS011;6456;42.680;23.260;2023-08-08T02:34:44;1.83;;;1.50;;
12784;SDS011;6456;42.680;23.260;2023-08-08T02:37:11;2.10;;;1.50;;
12784;SDS011;6456;42.680;23.260;2023-08-08T02:39:38;2.00;;;1.60;;
12784;SDS011;6456;42.680;23.260;2023-08-08T02:42:05;1.63;;;1.53;;
12784;SDS011;6456;42.680;23.260;2023-08-08T02:44:32;1.30;;;1.30;;
12784;SDS011;6456;42.680;23.260;2023-08-08T02:46:59;1.63;;;1.53;;
12784;SDS011;6456;42.680;23.260;2023-08-08T02:49:26;2.03;;;1.93;;
12784;SDS011;6456;42.680;23.260;2023-08-08T02:51:55;2.87;;;1.73;;
12784;SDS011;6456;42.680;23.260;2023-08-08T02:54:22;1.60;;;1.50;;
12784;SDS011;6456;42.680;23.260;2023-08-08T02:56:48;1.90;;;1.80;;
12784;SDS011;6456;42.680;23.260;2023-08-08T02:59:15;1.83;;;1.63;;
12784;SDS011;6456;42.680;23.260;2023-08-08T03:01:42;1.90;;;1.80;;
12784;SDS011;6456;42.680;23.260;2023-08-08T03:04:10;2.00;;;1.90;;
12784;SDS011;6456;42.680;23.260;2023-08-08T03:06:37;2.00;;;1.90;;
12784;SDS011;6456;42.680;23.260;2023-08-08T03:09:05;1.80;;;1.70;;
12784;SDS011;6456;42.680;23.260;2023-08-08T03:11:32;1.60;;;1.60;;
12784;SDS011;6456;42.680;23.260;2023-08-08T03:13:59;1.90;;;1.80;;
12784;SDS011;6456;42.680;23.260;2023-08-08T03:16:26;2.77;;;2.00;;
12784;SDS011;6456;42.680;23.260;2023-08-08T03:18:53;2.63;;;2.40;;
12784;SDS011;6456;42.680;23.260;2023-08-08T03:21:20;2.03;;;1.80;;
12784;SDS011;6456;42.680;23.260;2023-08-08T03:23:47;2.20;;;2.10;;
12784;SDS011;6456;42.680;23.260;2023-08-08T03:26:15;2.33;;;2.20;;
12784;SDS011;6456;42.680;23.260;2023-08-08T03:28:42;2.00;;;1.90;;
12784;SDS011;6456;42.680;23.260;2023-08-08T03:31:09;2.33;;;2.13;;
12784;SDS011;6456;42.680;23.260;2023-08-08T03:33:36;2.00;;;1.90;;
12784;SDS011;6456;42.680;23.260;2023-08-08T03:36:03;2.77;;;2.43;;
12784;SDS011;6456;42.680;23.260;2023-08-08T03:38:30;2.83;;;2.63;;
12784;SDS011;6456;42.680;23.260;2023-08-08T03:41:17;4.03;;;2.47;;
12784;SDS011;6456;42.680;23.260;2023-08-08T03:43:44;2.60;;;2.50;;
12784;SDS011;6456;42.680;23.260;2023-08-08T03:46:11;3.13;;;2.47;;
12784;SDS011;6456;42.680;23.260;2023-08-08T03:48:38;2.70;;;2.50;;
12784;SDS011;6456;42.680;23.260;2023-08-08T03:51:04;2.87;;;2.67;;
12784;SDS011;6456;42.680;23.260;2023-08-08T03:53:32;3.07;;;2.47;;
12784;SDS011;6456;42.680;23.260;2023-08-08T03:55:59;3.17;;;2.70;;
12784;SDS011;6456;42.680;23.260;2023-08-08T03:58:27;2.90;;;2.70;;
12784;SDS011;6456;42.680;23.260;2023-08-08T04:00:54;3.57;;;2.40;;
12784;SDS011;6456;42.680;23.260;2023-08-08T04:03:22;3.07;;;2.70;;
12784;SDS011;6456;42.680;23.260;2023-08-08T04:05:50;3.00;;;2.80;;
12784;SDS011;6456;42.680;23.260;2023-08-08T04:08:18;2.53;;;2.43;;
12784;SDS011;6456;42.680;23.260;2023-08-08T04:10:45;2.60;;;2.50;;
12784;SDS011;6456;42.680;23.260;2023-08-08T04:13:13;2.40;;;2.20;;
12784;SDS011;6456;42.680;23.260;2023-08-08T04:15:41;2.90;;;2.33;;
12784;SDS011;6456;42.680;23.260;2023-08-08T04:18:08;2.80;;;2.60;;
12784;SDS011;6456;42.680;23.260;2023-08-08T04:20:35;3.50;;;2.30;;
12784;SDS011;6456;42.680;23.260;2023-08-08T04:23:03;3.50;;;2.57;;
12784;SDS011;6456;42.680;23.260;2023-08-08T04:25:30;2.73;;;2.53;;
12784;SDS011;6456;42.680;23.260;2023-08-08T04:27:57;3.07;;;2.77;;
12784;SDS011;6456;42.680;23.260;2023-08-08T04:30:24;3.13;;;2.80;;
12784;SDS011;6456;42.680;23.260;2023-08-08T04:32:52;4.03;;;2.83;;
12784;SDS011;6456;42.680;23.260;2023-08-08T04:35:19;3.63;;;2.73;;
12784;SDS011;6456;42.680;23.260;2023-08-08T04:37:46;2.80;;;2.67;;
12784;SDS011;6456;42.680;23.260;2023-08-08T04:40:13;2.90;;;2.70;;
12784;SDS011;6456;42.680;23.260;2023-08-08T04:42:40;2.60;;;2.40;;
12784;SDS011;6456;42.680;23.260;2023-08-08T04:45:08;2.60;;;2.50;;
12784;SDS011;6456;42.680;23.260;2023-08-08T04:47:35;2.80;;;2.60;;
12784;SDS011;6456;42.680;23.260;2023-08-08T04:50:04;3.50;;;2.83;;
12784;SDS011;6456;42.680;23.260;2023-08-08T04:52:34;3.47;;;2.57;;
12784;SDS011;6456;42.680;23.260;2023-08-08T04:55:01;3.33;;;2.87;;
12784;SDS011;6456;42.680;23.260;2023-08-08T04:57:28;2.97;;;2.67;;
12784;SDS011;6456;42.680;23.260;2023-08-08T04:59:56;3.10;;;2.90;;
12784;SDS011;6456;42.680;23.260;2023-08-08T05:02:23;2.93;;;2.73;;
12784;SDS011;6456;42.680;23.260;2023-08-08T05:04:51;3.00;;;2.30;;
12784;SDS011;6456;42.680;23.260;2023-08-08T05:07:19;3.80;;;3.00;;
12784;SDS011;6456;42.680;23.260;2023-08-08T05:09:46;2.63;;;2.50;;
12784;SDS011;6456;42.680;23.260;2023-08-08T05:12:13;2.40;;;2.20;;
12784;SDS011;6456;42.680;23.260;2023-08-08T05:14:40;2.30;;;2.20;;
12784;SDS011;6456;42.680;23.260;2023-08-08T05:17:07;2.80;;;2.60;;
12784;SDS011;6456;42.680;23.260;2023-08-08T05:19:34;2.63;;;2.43;;
12784;SDS011;6456;42.680;23.260;2023-08-08T05:22:00;2.20;;;2.10;;
12784;SDS011;6456;42.680;23.260;2023-08-08T05:24:29;2.67;;;2.57;;
12784;SDS011;6456;42.680;23.260;2023-08-08T05:26:56;2.93;;;2.63;;
12784;SDS011;6456;42.680;23.260;2023-08-08T05:29:23;2.50;;;2.40;;
12784;SDS011;6456;42.680;23.260;2023-08-08T05:31:49;2.63;;;2.43;;
12784;SDS011;6456;42.680;23.260;2023-08-08T05:34:17;2.77;;;2.60;;
12784;SDS011;6456;42.680;23.260;2023-08-08T05:36:44;2.60;;;2.50;;
12784;SDS011;6456;42.680;23.260;2023-08-08T05:39:11;2.43;;;2.30;;
12784;SDS011;6456;42.680;23.260;2023-08-08T05:41:39;2.70;;;2.50;;
12784;SDS011;6456;42.680;23.260;2023-08-08T05:44:06;3.30;;;2.70;;
12784;SDS011;6456;42.680;23.260;2023-08-08T05:46:33;3.00;;;2.80;;
12784;SDS011;6456;42.680;23.260;2023-08-08T05:49:00;4.67;;;3.00;;
12784;SDS011;6456;42.680;23.260;2023-08-08T05:51:27;3.27;;;2.97;;
12784;SDS011;6456;42.680;23.260;2023-08-08T05:53:54;3.00;;;2.80;;
12784;SDS011;6456;42.680;23.260;2023-08-08T05:56:21;3.27;;;2.97;;
12784;SDS011;6456;42.680;23.260;2023-08-08T05:58:49;9.43;;;3.50;;
12784;SDS011;6456;42.680;23.260;2023-08-08T06:01:16;3.40;;;3.20;;
12784;SDS011;6456;42.680;23.260;2023-08-08T06:03:43;3.20;;;2.90;;
12784;SDS011;6456;42.680;23.260;2023-08-08T06:06:09;3.67;;;3.20;;
12784;SDS011;6456;42.680;23.260;2023-08-08T06:08:36;3.07;;;2.87;;
12784;SDS011;6456;42.680;23.260;2023-08-08T06:11:03;4.37;;;3.20;;
12784;SDS011;6456;42.680;23.260;2023-08-08T06:13:30;3.33;;;3.13;;
12784;SDS011;6456;42.680;23.260;2023-08-08T06:15:58;3.23;;;2.93;;
12784;SDS011;6456;42.680;23.260;2023-08-08T06:18:26;3.60;;;3.30;;
12784;SDS011;6456;42.680;23.260;2023-08-08T06:20:53;2.53;;;2.43;;
12784;SDS011;6456;42.680;23.260;2023-08-08T06:23:19;2.90;;;2.70;;
12784;SDS011;6456;42.680;23.260;2023-08-08T06:25:47;3.33;;;3.07;;
12784;SDS011;6456;42.680;23.260;2023-08-08T06:28:13;2.63;;;2.53;;
12784;SDS011;6456;42.680;23.260;2023-08-08T06:30:40;2.80;;;2.63;;
12784;SDS011;6456;42.680;23.260;2023-08-08T06:33:08;2.60;;;2.40;;
12784;SDS011;6456;42.680;23.260;2023-08-08T06:35:35;2.57;;;2.37;;
12784;SDS011;6456;42.680;23.260;2023-08-08T06:38:02;5.03;;;2.67;;
12784;SDS011;6456;42.680;23.260;2023-08-08T06:40:29;2.47;;;2.37;;
12784;SDS011;6456;42.680;23.260;2023-08-08T06:42:56;2.50;;;2.40;;
12784;SDS011;6456;42.680;23.260;2023-08-08T06:45:23;2.50;;;2.40;;
12784;SDS011;6456;42.680;23.260;2023-08-08T06:47:50;1.47;;;1.47;;
12784;SDS011;6456;42.680;23.260;2023-08-08T06:50:18;1.63;;;1.57;;
12784;SDS011;6456;42.680;23.260;2023-08-08T06:52:45;1.80;;;1.70;;
12784;SDS011;6456;42.680;23.260;2023-08-08T06:55:27;2.33;;;2.10;;
12784;SDS011;6456;42.680;23.260;2023-08-08T06:57:54;2.00;;;1.90;;
12784;SDS011;6456;42.680;23.260;2023-08-08T07:00:21;2.37;;;2.17;;
12784;SDS011;6456;42.680;23.260;2023-08-08T07:02:48;2.50;;;2.00;;
12784;SDS011;6456;42.680;23.260;2023-08-08T07:05:14;2.10;;;2.00;;
12784;SDS011;6456;42.680;23.260;2023-08-08T07:07:43;1.90;;;1.80;;
12784;SDS011;6456;42.680;23.260;2023-08-08T07:10:11;2.80;;;2.00;;
12784;SDS011;6456;42.680;23.260;2023-08-08T07:12:38;2.80;;;1.80;;
12784;SDS011;6456;42.680;23.260;2023-08-08T07:15:06;2.10;;;1.90;;
12784;SDS011;6456;42.680;23.260;2023-08-08T07:17:34;2.00;;;1.90;;
12784;SDS011;6456;42.680;23.260;2023-08-08T07:20:00;2.20;;;2.10;;
12784;SDS011;6456;42.680;23.260;2023-08-08T07:22:28;2.20;;;2.10;;
12784;SDS011;6456;42.680;23.260;2023-08-08T07:24:56;1.63;;;1.53;;
12784;SDS011;6456;42.680;23.260;2023-08-08T07:27:23;1.67;;;1.57;;
12784;SDS011;6456;42.680;23.260;2023-08-08T07:29:50;1.50;;;1.40;;
12784;SDS011;6456;42.680;23.260;2023-08-08T07:32:17;1.63;;;1.53;;
12784;SDS011;6456;42.680;23.260;2023-08-08T07:34:43;1.30;;;1.30;;
12784;SDS011;6456;42.680;23.260;2023-08-08T07:37:10;1.30;;;1.30;;
12784;SDS011;6456;42.680;23.260;2023-08-08T07:39:37;1.30;;;1.30;;
12784;SDS011;6456;42.680;23.260;2023-08-08T07:42:05;1.10;;;1.10;;
12784;SDS011;6456;42.680;23.260;2023-08-08T07:44:32;1.90;;;1.10;;
12784;SDS011;6456;42.680;23.260;2023-08-08T07:47:03;1.40;;;1.30;;
12784;SDS011;6456;42.680;23.260;2023-08-08T07:49:30;1.10;;;1.10;;
12784;SDS011;6456;42.680;23.260;2023-08-08T07:51:57;1.20;;;1.20;;
12784;SDS011;6456;42.680;23.260;2023-08-08T07:54:24;1.43;;;1.33;;
12784;SDS011;6456;42.680;23.260;2023-08-08T07:56:51;1.40;;;1.40;;
12784;SDS011;6456;42.680;23.260;2023-08-08T07:59:19;1.90;;;1.20;;
12784;SDS011;6456;42.680;23.260;2023-08-08T08:01:46;1.20;;;1.20;;
12784;SDS011;6456;42.680;23.260;2023-08-08T08:04:13;2.20;;;1.20;;
12784;SDS011;6456;42.680;23.260;2023-08-08T08:06:40;1.40;;;1.40;;
12784;SDS011;6456;42.680;23.260;2023-08-08T08:09:06;1.63;;;1.30;;
12784;SDS011;6456;42.680;23.260;2023-08-08T08:11:33;1.40;;;1.40;;
12784;SDS011;6456;42.680;23.260;2023-08-08T08:14:00;1.67;;;1.57;;
12784;SDS011;6456;42.680;23.260;2023-08-08T08:16:28;1.43;;;1.40;;
12784;SDS011;6456;42.680;23.260;2023-08-08T08:18:55;2.17;;;1.90;;
12784;SDS011;6456;42.680;23.260;2023-08-08T08:21:22;2.70;;;1.70;;
12784;SDS011;6456;42.680;23.260;2023-08-08T08:23:49;1.30;;;1.30;;
12784;SDS011;6456;42.680;23.260;2023-08-08T08:26:16;1.40;;;1.30;;
12784;SDS011;6456;42.680;23.260;2023-08-08T08:28:43;1.57;;;1.47;;
12784;SDS011;6456;42.680;23.260;2023-08-08T08:31:10;1.60;;;1.40;;
12784;SDS011;6456;42.680;23.260;2023-08-08T08:33:38;1.60;;;1.50;;
12784;SDS011;6456;42.680;23.260;2023-08-08T08:36:05;1.70;;;1.60;;
12784;SDS011;6456;42.680;23.260;2023-08-08T08:38:32;1.67;;;1.57;;
12784;SDS011;6456;42.680;23.260;2023-08-08T08:40:59;1.93;;;1.43;;
12784;SDS011;6456;42.680;23.260;2023-08-08T08:43:28;1.90;;;1.80;;
12784;SDS011;6456;42.680;23.260;2023-08-08T08:45:56;1.97;;;1.87;;
12784;SDS011;6456;42.680;23.260;2023-08-08T08:48:27;2.10;;;2.00;;
12784;SDS011;6456;42.680;23.260;2023-08-08T08:50:56;1.70;;;1.60;;
12784;SDS011;6456;42.680;23.260;2023-08-08T08:53:24;1.80;;;1.70;;
12784;SDS011;6456;42.680;23.260;2023-08-08T08:55:51;1.87;;;1.77;;
12784;SDS011;6456;42.680;23.260;2023-08-08T08:58:19;1.87;;;1.77;;
12784;SDS011;6456;42.680;23.260;2023-08-08T09:00:47;3.17;;;1.80;;
12784;SDS011;6456;42.680;23.260;2023-08-08T09:03:14;1.60;;;1.50;;
12784;SDS011;6456;42.680;23.260;2023-08-08T09:05:42;1.60;;;1.50;;
12784;SDS011;6456;42.680;23.260;2023-08-08T09:08:11;1.77;;;1.67;;
12784;SDS011;6456;42.680;23.260;2023-08-08T09:10:40;1.67;;;1.50;;
12784;SDS011;6456;42.680;23.260;2023-08-08T09:13:07;1.60;;;1.50;;
12784;SDS011;6456;42.680;23.260;2023-08-08T09:15:34;2.07;;;1.87;;
12784;SDS011;6456;42.680;23.260;2023-08-08T09:18:01;1.70;;;1.60;;
12784;SDS011;6456;42.680;23.260;2023-08-08T09:20:28;3.67;;;1.60;;
12784;SDS011;6456;42.680;23.260;2023-08-08T09:22:55;1.30;;;1.30;;
12784;SDS011;6456;42.680;23.260;2023-08-08T09:25:23;2.37;;;1.43;;
12784;SDS011;6456;42.680;23.260;2023-08-08T09:27:51;1.60;;;1.50;;
12784;SDS011;6456;42.680;23.260;2023-08-08T09:30:18;1.40;;;1.40;;
12784;SDS011;6456;42.680;23.260;2023-08-08T09:32:45;2.23;;;1.70;;
12784;SDS011;6456;42.680;23.260;2023-08-08T09:35:12;1.87;;;1.77;;
12784;SDS011;6456;42.680;23.260;2023-08-08T09:37:41;1.70;;;1.63;;
12784;SDS011;6456;42.680;23.260;2023-08-08T09:40:08;4.00;;;1.40;;
12784;SDS011;6456;42.680;23.260;2023-08-08T09:42:37;1.47;;;1.47;;
12784;SDS011;6456;42.680;23.260;2023-08-08T09:45:07;1.40;;;1.40;;
12784;SDS011;6456;42.680;23.260;2023-08-08T09:47:35;1.97;;;1.80;;
12784;SDS011;6456;42.680;23.260;2023-08-08T09:50:04;1.70;;;1.60;;
12784;SDS011;6456;42.680;23.260;2023-08-08T09:52:31;1.83;;;1.70;;
12784;SDS011;6456;42.680;23.260;2023-08-08T09:55:00;1.40;;;1.40;;
12784;SDS011;6456;42.680;23.260;2023-08-08T09:57:27;2.30;;;1.50;;
12784;SDS011;6456;42.680;23.260;2023-08-08T09:59:57;2.63;;;1.60;;
12784;SDS011;6456;42.680;23.260;2023-08-08T10:02:24;4.73;;;1.90;;
12784;SDS011;6456;42.680;23.260;2023-08-08T10:04:51;1.90;;;1.80;;
12784;SDS011;6456;42.680;23.260;2023-08-08T10:07:19;1.70;;;1.60;;
12784;SDS011;6456;42.680;23.260;2023-08-08T10:09:46;1.77;;;1.67;;
12784;SDS011;6456;42.680;23.260;2023-08-08T10:12:13;1.53;;;1.50;;
12784;SDS011;6456;42.680;23.260;2023-08-08T10:14:42;1.80;;;1.70;;
12784;SDS011;6456;42.680;23.260;2023-08-08T10:17:14;1.70;;;1.60;;
12784;SDS011;6456;42.680;23.260;2023-08-08T10:19:49;1.60;;;1.50;;
12784;SDS011;6456;42.680;23.260;2023-08-08T10:22:24;1.70;;;1.60;;
12784;SDS011;6456;42.680;23.260;2023-08-08T10:24:51;1.70;;;1.60;;
12784;SDS011;6456;42.680;23.260;2023-08-08T10:27:31;2.23;;;1.80;;
12784;SDS011;6456;42.680;23.260;2023-08-08T10:30:05;1.63;;;1.53;;
12784;SDS011;6456;42.680;23.260;2023-08-08T10:32:40;1.90;;;1.80;;
12784;SDS011;6456;42.680;23.260;2023-08-08T10:35:08;2.00;;;1.30;;
12784;SDS011;6456;42.680;23.260;2023-08-08T10:37:35;1.60;;;1.50;;
12784;SDS011;6456;42.680;23.260;2023-08-08T10:40:04;1.40;;;1.40;;
12784;SDS011;6456;42.680;23.260;2023-08-08T10:42:32;1.53;;;1.43;;
12784;SDS011;6456;42.680;23.260;2023-08-08T10:45:09;1.27;;;1.27;;
12784;SDS011;6456;42.680;23.260;2023-08-08T10:47:37;2.93;;;1.20;;
12784;SDS011;6456;42.680;23.260;2023-08-08T10:50:06;1.73;;;1.30;;
12784;SDS011;6456;42.680;23.260;2023-08-08T10:52:38;1.30;;;1.30;;
12784;SDS011;6456;42.680;23.260;2023-08-08T10:55:05;1.30;;;1.20;;
12784;SDS011;6456;42.680;23.260;2023-08-08T10:57:44;1.43;;;1.33;;
12784;SDS011;6456;42.680;23.260;2023-08-08T11:00:20;1.37;;;1.30;;
12784;SDS011;6456;42.680;23.260;2023-08-08T11:02:49;1.40;;;1.30;;
12784;SDS011;6456;42.680;23.260;2023-08-08T11:05:19;1.30;;;1.20;;
12784;SDS011;6456;42.680;23.260;2023-08-08T11:07:49;1.10;;;1.10;;
12784;SDS011;6456;42.680;23.260;2023-08-08T11:10:16;3.23;;;1.50;;
12784;SDS011;6456;42.680;23.260;2023-08-08T11:12:51;2.90;;;1.20;;
12784;SDS011;6456;42.680;23.260;2023-08-08T11:15:20;1.97;;;1.17;;
12784;SDS011;6456;42.680;23.260;2023-08-08T11:17:48;1.17;;;1.17;;
12784;SDS011;6456;42.680;23.260;2023-08-08T11:20:19;1.10;;;1.10;;
12784;SDS011;6456;42.680;23.260;2023-08-08T11:22:50;1.20;;;1.20;;
12784;SDS011;6456;42.680;23.260;2023-08-08T11:25:17;1.25;;;1.15;;
12784;SDS011;6456;42.680;23.260;2023-08-08T11:27:48;1.30;;;1.20;;
12784;SDS011;6456;42.680;23.260;2023-08-08T11:30:17;1.23;;;1.20;;
12784;SDS011;6456;42.680;23.260;2023-08-08T11:32:45;1.33;;;1.30;;
12784;SDS011;6456;42.680;23.260;2023-08-08T11:35:15;1.75;;;1.13;;
12784;SDS011;6456;42.680;23.260;2023-08-08T11:37:47;1.00;;;1.00;;
12784;SDS011;6456;42.680;23.260;2023-08-08T11:40:18;1.83;;;1.20;;
12784;SDS011;6456;42.680;23.260;2023-08-08T11:42:46;1.23;;;1.23;;
12784;SDS011;6456;42.680;23.260;2023-08-08T11:45:15;1.60;;;1.10;;
12784;SDS011;6456;42.680;23.260;2023-08-08T11:47:47;1.00;;;1.00;;
12784;SDS011;6456;42.680;23.260;2023-08-08T11:50:15;1.48;;;1.38;;
12784;SDS011;6456;42.680;23.260;2023-08-08T11:52:44;1.10;;;1.10;;
12784;SDS011;6456;42.680;23.260;2023-08-08T11:55:14;1.10;;;1.10;;
12784;SDS011;6456;42.680;23.260;2023-08-08T11:57:41;1.90;;;1.58;;
12784;SDS011;6456;42.680;23.260;2023-08-08T12:00:11;1.00;;;1.00;;
12784;SDS011;6456;42.680;23.260;2023-08-08T12:02:39;1.63;;;1.20;;
12784;SDS011;6456;42.680;23.260;2023-08-08T12:05:07;1.33;;;1.10;;
12784;SDS011;6456;42.680;23.260;2023-08-08T12:07:36;1.30;;;1.30;;
12784;SDS011;6456;42.680;23.260;2023-08-08T12:10:06;1.10;;;1.10;;
12784;SDS011;6456;42.680;23.260;2023-08-08T12:12:41;1.67;;;1.30;;
12784;SDS011;6456;42.680;23.260;2023-08-08T12:15:08;1.25;;;1.20;;
12784;SDS011;6456;42.680;23.260;2023-08-08T12:17:36;1.10;;;1.10;;
12784;SDS011;6456;42.680;23.260;2023-08-08T12:20:06;1.42;;;1.30;;
12784;SDS011;6456;42.680;23.260;2023-08-08T12:22:34;1.20;;;1.20;;
12784;SDS011;6456;42.680;23.260;2023-08-08T12:25:02;1.20;;;1.20;;
12784;SDS011;6456;42.680;23.260;2023-08-08T12:27:29;1.30;;;1.20;;
12784;SDS011;6456;42.680;23.260;2023-08-08T12:29:58;1.30;;;1.30;;
12784;SDS011;6456;42.680;23.260;2023-08-08T12:32:25;1.10;;;1.10;;
12784;SDS011;6456;42.680;23.260;2023-08-08T12:34:54;1.20;;;1.20;;
12784;SDS011;6456;42.680;23.260;2023-08-08T12:37:22;1.30;;;1.30;;
12784;SDS011;6456;42.680;23.260;2023-08-08T12:39:49;1.20;;;1.20;;
12784;SDS011;6456;42.680;23.260;2023-08-08T12:42:16;2.67;;;1.30;;
12784;SDS011;6456;42.680;23.260;2023-08-08T12:44:44;1.73;;;1.20;;
12784;SDS011;6456;42.680;23.260;2023-08-08T12:47:15;1.10;;;1.10;;
12784;SDS011;6456;42.680;23.260;2023-08-08T12:49:42;1.95;;;1.42;;
12784;SDS011;6456;42.680;23.260;2023-08-08T12:52:09;1.08;;;1.08;;
12784;SDS011;6456;42.680;23.260;2023-08-08T12:54:36;1.25;;;1.23;;
12784;SDS011;6456;42.680;23.260;2023-08-08T12:57:03;1.38;;;1.20;;
12784;SDS011;6456;42.680;23.260;2023-08-08T12:59:30;1.10;;;1.10;;
12784;SDS011;6456;42.680;23.260;2023-08-08T13:01:57;2.30;;;1.05;;
12784;SDS011;6456;42.680;23.260;2023-08-08T13:04:25;1.58;;;1.10;;
12784;SDS011;6456;42.680;23.260;2023-08-08T13:06:52;2.55;;;1.30;;
12784;SDS011;6456;42.680;23.260;2023-08-08T13:09:19;1.15;;;1.15;;
12784;SDS011;6456;42.680;23.260;2023-08-08T13:11:46;1.10;;;1.10;;
12784;SDS011;6456;42.680;23.260;2023-08-08T13:14:13;1.50;;;1.42;;
12784;SDS011;6456;42.680;23.260;2023-08-08T13:16:40;1.25;;;1.25;;
12784;SDS011;6456;42.680;23.260;2023-08-08T13:19:06;1.30;;;1.30;;
12784;SDS011;6456;42.680;23.260;2023-08-08T13:21:35;1.25;;;1.25;;
12784;SDS011;6456;42.680;23.260;2023-08-08T13:24:02;1.17;;;1.17;;
12784;SDS011;6456;42.680;23.260;2023-08-08T13:26:29;1.20;;;1.20;;
12784;SDS011;6456;42.680;23.260;2023-08-08T13:28:56;1.42;;;1.33;;
12784;SDS011;6456;42.680;23.260;2023-08-08T13:31:23;1.40;;;1.30;;
12784;SDS011;6456;42.680;23.260;2023-08-08T13:33:50;1.40;;;1.30;;
12784;SDS011;6456;42.680;23.260;2023-08-08T13:36:17;1.30;;;1.30;;
12784;SDS011;6456;42.680;23.260;2023-08-08T13:38:45;1.55;;;1.45;;
12784;SDS011;6456;42.680;23.260;2023-08-08T13:41:12;1.30;;;1.30;;
12784;SDS011;6456;42.680;23.260;2023-08-08T13:43:41;1.48;;;1.38;;
12784;SDS011;6456;42.680;23.260;2023-08-08T13:46:08;1.20;;;1.20;;
12784;SDS011;6456;42.680;23.260;2023-08-08T13:48:35;1.20;;;1.20;;
12784;SDS011;6456;42.680;23.260;2023-08-08T13:51:02;1.20;;;1.10;;
12784;SDS011;6456;42.680;23.260;2023-08-08T13:53:30;1.80;;;1.00;;
12784;SDS011;6456;42.680;23.260;2023-08-08T13:55:58;1.10;;;1.10;;
12784;SDS011;6456;42.680;23.260;2023-08-08T13:58:25;1.38;;;1.30;;
12784;SDS011;6456;42.680;23.260;2023-08-08T14:00:52;1.00;;;1.00;;
12784;SDS011;6456;42.680;23.260;2023-08-08T14:03:21;1.30;;;1.20;;
12784;SDS011;6456;42.680;23.260;2023-08-08T14:05:49;1.10;;;1.10;;
12784;SDS011;6456;42.680;23.260;2023-08-08T14:08:17;2.55;;;1.40;;
12784;SDS011;6456;42.680;23.260;2023-08-08T14:10:45;2.13;;;1.30;;
12784;SDS011;6456;42.680;23.260;2023-08-08T14:13:13;2.22;;;1.35;;
12784;SDS011;6456;42.680;23.260;2023-08-08T14:15:40;1.25;;;1.20;;
12784;SDS011;6456;42.680;23.260;2023-08-08T14:18:07;1.40;;;1.30;;
12784;SDS011;6456;42.680;23.260;2023-08-08T14:20:35;3.15;;;1.25;;
12784;SDS011;6456;42.680;23.260;2023-08-08T14:23:03;1.02;;;1.00;;
12784;SDS011;6456;42.680;23.260;2023-08-08T14:25:30;1.77;;;1.23;;
12784;SDS011;6456;42.680;23.260;2023-08-08T14:27:57;1.20;;;1.20;;
12784;SDS011;6456;42.680;23.260;2023-08-08T14:30:26;1.20;;;1.20;;
12784;SDS011;6456;42.680;23.260;2023-08-08T14:32:53;1.05;;;1.00;;
12784;SDS011;6456;42.680;23.260;2023-08-08T14:35:20;1.40;;;1.30;;
12784;SDS011;6456;42.680;23.260;2023-08-08T14:37:47;1.15;;;1.15;;
12784;SDS011;6456;42.680;23.260;2023-08-08T14:40:14;1.13;;;1.13;;
12784;SDS011;6456;42.680;23.260;2023-08-08T14:42:41;1.48;;;1.20;;
12784;SDS011;6456;42.680;23.260;2023-08-08T14:45:09;1.00;;;1.00;;
12784;SDS011;6456;42.680;23.260;2023-08-08T14:47:37;1.15;;;1.10;;
12784;SDS011;6456;42.680;23.260;2023-08-08T14:50:05;1.77;;;1.20;;
12784;SDS011;6456;42.680;23.260;2023-08-08T14:52:34;1.10;;;1.10;;